Jacksonville, FL (32224)

12:04 PM EDT on August 31, 2016 (GMT -0400)
Windsor Park/Hanover Park | | Change Station

Elev 30 ft 30.26 °N, 81.45 °W | Updated 1 second ago

Overcast
Overcast
82.6 °F
Feels Like 90 °F
N
1.1
Wind Variable Wind from South
Gusts 2.5 mph

Today
High -- | Low -- °F
--% Chance of Precip.
Yesterday
High -- | Low -- °F
Precip. -- in
Pressure 29.92 in
Visibility 10.0 miles
Clouds Scattered Clouds 1800 ft
Overcast 4500 ft
Heat Index 90 °F
Dew Point 75 °F
Humidity 79%
Rainfall 0.05 in
Snow Depth Not available.
7:02 AM 7:49 PM
Waning Crescent, 1% visible
METAR KCRG 311553Z 23011KT 10SM SCT018 OVC045 28/23 A2992 RMK AO2 RAB01E35 SLP131 P0000 T02830233
Pressure 29.92 in
Visibility 10.0 miles
Clouds Scattered Clouds 1800 ft
Overcast 4500 ft
Heat Index 90 °F
Dew Point 75 °F
Humidity 79%
Rainfall 0.05 in
Snow Depth Not available.
7:02 AM 7:49 PM
Waning Crescent, 1% visible
METAR KCRG 311553Z 23011KT 10SM SCT018 OVC045 28/23 A2992 RMK AO2 RAB01E35 SLP131 P0000 T02830233

10-Day Weather Forecast

Almanac

Astronomy

Aug. 31, 2016 Rise Set
Actual Time
Civil Twilight
Nautical Twilight
Astronomical Twilight
Moon
Length of Visible Light
Length of Day
Tomorrow will be .
, % of the Moon is Illuminated

Today's Extremes

State Highs State Lows

Community

WunderPhotos

Upload Photos

1,936,102 photos uploaded!

WunderBlog® & News

Nearby

Air Quality

  Air Quality AQ Index Pollutant
Not available.

Snow Depth

Station Depth Elevation

Earthquake Activity

City Distance Mag. Time & Date
Minimum magnitude displayed is 2.5.

Coastal Water Temperatures

Place Temperature

Stations

Nearby Weather Stations

Station Location Temp. Windchill Dew Point Humidity Wind Precip. Elev Updated Type
                   

Watches & Warnings

There are currently no watches in effect.